Time;durP1;ratioP1;P1;durP2;ratioP2;P2;SDS_P1;SDS_P2;PMS_P1;PMS_P2;Temp;Humidity;BMP_temperature;BMP_pressure;BME280_temperature;BME280_humidity;BME280_pressure;Samples;Min_cycle;Max_cycle;Signal;HPM_P1;HPM_P2
2022/02/26 00:00:24;;;;;;;3.38;1.63;;;23.00;44.30;;;;;;4999352;28;20525;-68
2022/02/26 00:02:50;;;;;;;3.47;1.60;;;23.00;44.10;;;;;;4999200;28;20029;-67
2022/02/26 00:05:15;;;;;;;2.97;1.60;;;23.00;44.30;;;;;;5014866;28;20120;-65
2022/02/26 00:07:41;;;;;;;2.65;1.50;;;22.90;44.30;;;;;;4999723;28;20403;-68
2022/02/26 00:10:07;;;;;;;2.78;1.75;;;22.90;44.30;;;;;;5012738;28;20412;-68
2022/02/26 00:12:32;;;;;;;3.13;1.60;;;22.90;44.30;;;;;;5000459;28;20037;-66
2022/02/26 00:14:58;;;;;;;3.17;1.70;;;22.90;44.40;;;;;;5013927;28;20026;-65
2022/02/26 00:17:24;;;;;;;3.03;1.50;;;22.90;44.30;;;;;;5010545;28;20026;-68
2022/02/26 00:19:49;;;;;;;3.92;1.63;;;22.80;44.30;;;;;;4998077;28;20037;-67
2022/02/26 00:22:15;;;;;;;3.33;1.55;;;22.80;44.40;;;;;;5000452;28;20120;-68
2022/02/26 00:24:41;;;;;;;3.28;1.65;;;22.80;44.40;;;;;;4996125;28;20033;-65
2022/02/26 00:27:06;;;;;;;3.00;1.50;;;22.80;44.40;;;;;;4999672;28;20101;-68
2022/02/26 00:29:34;;;;;;;3.15;1.60;;;22.80;44.40;;;;;;4997041;28;20037;-68
2022/02/26 00:32:00;;;;;;;3.47;1.73;;;22.70;44.40;;;;;;5014094;28;20050;-65
2022/02/26 00:34:26;;;;;;;3.03;1.42;;;22.70;44.40;;;;;;5013368;28;20099;-66
2022/02/26 00:36:52;;;;;;;2.58;1.40;;;22.70;44.50;;;;;;4998732;28;20038;-68
2022/02/26 00:39:18;;;;;;;2.65;1.50;;;22.70;44.40;;;;;;4995332;28;20018;-67
2022/02/26 00:41:44;;;;;;;2.75;1.35;;;22.70;44.50;;;;;;4997524;28;20517;-64
2022/02/26 00:44:09;;;;;;;2.25;1.20;;;22.60;44.40;;;;;;4997924;28;20034;-67
2022/02/26 00:46:35;;;;;;;2.92;1.40;;;22.60;44.50;;;;;;5000115;28;20026;-67
2022/02/26 00:51:45;;;;;;;2.63;1.33;;;22.60;44.50;;;;;;4998156;28;20064;-68
2022/02/26 00:54:10;;;;;;;2.47;1.27;;;22.60;44.50;;;;;;4995310;28;20029;-67
2022/02/26 00:56:36;;;;;;;3.40;1.75;;;22.60;44.60;;;;;;4997333;28;20116;-64
2022/02/26 00:59:02;;;;;;;2.65;1.27;;;22.50;44.50;;;;;;4998159;28;20137;-67
2022/02/26 01:01:28;;;;;;;1.95;1.17;;;22.50;44.50;;;;;;4998122;28;20045;-64
2022/02/26 01:03:53;;;;;;;2.33;1.20;;;22.50;44.50;;;;;;4998115;28;20063;-68
2022/02/26 01:06:19;;;;;;;2.55;1.23;;;22.50;44.60;;;;;;4995999;28;20117;-64
2022/02/26 01:08:44;;;;;;;3.00;1.40;;;22.50;44.60;;;;;;4995737;28;20334;-64
2022/02/26 01:11:10;;;;;;;2.20;1.30;;;22.40;44.60;;;;;;4998368;28;20036;-65
2022/02/26 01:13:36;;;;;;;1.73;1.10;;;22.40;44.60;;;;;;4997544;28;20038;-67
2022/02/26 01:16:01;;;;;;;1.88;1.20;;;22.40;44.60;;;;;;4999029;28;20257;-64
2022/02/26 01:18:27;;;;;;;2.53;1.40;;;22.40;44.60;;;;;;4996540;28;20300;-65
2022/02/26 01:20:53;;;;;;;2.10;1.20;;;22.40;44.60;;;;;;4996462;28;20030;-65
2022/02/26 01:23:18;;;;;;;2.55;1.40;;;22.40;44.70;;;;;;4995052;28;20037;-66
2022/02/26 01:25:44;;;;;;;2.13;1.13;;;22.30;44.60;;;;;;4997755;28;20406;-65
2022/02/26 01:28:10;;;;;;;2.22;1.10;;;22.30;44.70;;;;;;4996918;28;20473;-68
2022/02/26 01:30:35;;;;;;;3.50;1.27;;;22.30;44.70;;;;;;4996649;28;20097;-67
2022/02/26 01:33:01;;;;;;;2.03;1.10;;;22.30;44.70;;;;;;4997553;28;20040;-66
2022/02/26 01:35:26;;;;;;;1.85;1.17;;;22.30;44.70;;;;;;4997322;28;20029;-66
2022/02/26 01:37:52;;;;;;;1.90;1.05;;;22.30;44.70;;;;;;4995880;28;20439;-67
2022/02/26 01:40:18;;;;;;;2.72;1.20;;;22.30;44.80;;;;;;4996037;28;20088;-67
2022/02/26 01:42:44;;;;;;;1.92;1.00;;;22.20;44.70;;;;;;5012934;28;20038;-67
2022/02/26 01:45:16;;;;;;;2.30;1.00;;;22.20;44.70;;;;;;4998599;28;20018;-64
2022/02/26 01:47:41;;;;;;;2.45;1.08;;;22.20;44.80;;;;;;4997413;28;20162;-65
2022/02/26 01:50:12;;;;;;;2.15;1.10;;;22.20;44.80;;;;;;4996953;28;20132;-66
2022/02/26 01:52:38;;;;;;;2.22;1.20;;;22.10;44.70;;;;;;4996292;28;20105;-65
2022/02/26 01:55:04;;;;;;;1.92;1.15;;;22.10;44.80;;;;;;4995195;28;20126;-67
2022/02/26 01:57:30;;;;;;;1.63;0.90;;;22.10;44.80;;;;;;4997644;28;20035;-68
2022/02/26 01:59:56;;;;;;;1.95;1.00;;;22.10;44.80;;;;;;4995886;28;20038;-67
2022/02/26 02:02:21;;;;;;;2.35;1.10;;;22.10;44.80;;;;;;4997484;28;20371;-67
2022/02/26 02:04:47;;;;;;;1.63;0.95;;;22.10;44.80;;;;;;4996671;28;20113;-66
2022/02/26 02:07:13;;;;;;;2.80;1.15;;;22.10;44.80;;;;;;4996296;28;20038;-69
2022/02/26 02:09:39;;;;;;;1.77;0.98;;;22.00;45.30;;;;;;4993291;28;20085;-67
2022/02/26 02:12:05;;;;;;;2.67;1.45;;;22.00;45.30;;;;;;5012891;28;20181;-66
2022/02/26 02:14:31;;;;;;;2.13;0.98;;;22.00;44.80;;;;;;4996986;28;20132;-66
2022/02/26 02:16:56;;;;;;;1.30;0.90;;;22.00;44.80;;;;;;4997599;28;20116;-65
2022/02/26 02:19:25;;;;;;;1.95;0.98;;;22.00;44.90;;;;;;4996269;28;20053;-66
2022/02/26 02:21:50;;;;;;;2.25;0.90;;;22.00;44.90;;;;;;5013669;28;20033;-67
2022/02/26 02:24:16;;;;;;;2.10;1.20;;;22.00;44.90;;;;;;4994176;28;20501;-67
2022/02/26 02:26:44;;;;;;;1.70;1.00;;;21.90;44.90;;;;;;4997398;28;20486;-65
2022/02/26 02:29:10;;;;;;;1.58;0.93;;;21.90;44.90;;;;;;5010998;28;20861;-66
2022/02/26 02:31:35;;;;;;;1.83;1.08;;;21.90;44.90;;;;;;4998320;28;20045;-67
2022/02/26 02:34:01;;;;;;;2.50;1.20;;;21.90;45.00;;;;;;4996882;28;20593;-64
2022/02/26 02:36:27;;;;;;;2.25;1.20;;;21.90;45.00;;;;;;4997151;28;20494;-65
2022/02/26 02:38:53;;;;;;;1.52;1.00;;;21.90;45.00;;;;;;4995505;28;20033;-67
2022/02/26 02:41:19;;;;;;;2.58;1.10;;;21.80;45.00;;;;;;5001992;28;20033;-67
2022/02/26 02:43:45;;;;;;;1.48;1.00;;;21.80;45.00;;;;;;5001973;28;20087;-65
2022/02/26 02:46:10;;;;;;;2.25;1.00;;;21.80;45.00;;;;;;5015857;28;20034;-67
2022/02/26 02:48:38;;;;;;;1.25;0.80;;;21.80;45.10;;;;;;5000976;28;20026;-64
2022/02/26 02:51:05;;;;;;;2.83;0.98;;;21.80;45.10;;;;;;5000624;28;20079;-65
2022/02/26 02:53:31;;;;;;;1.67;0.90;;;21.80;45.10;;;;;;4998346;28;20018;-67
2022/02/26 02:55:57;;;;;;;2.03;0.90;;;21.80;45.10;;;;;;4999210;28;20494;-64
2022/02/26 02:58:25;;;;;;;1.67;0.90;;;21.80;45.20;;;;;;5000710;28;20026;-65
2022/02/26 03:00:51;;;;;;;2.58;1.00;;;21.80;45.10;;;;;;4999348;28;20041;-68
2022/02/26 03:03:17;;;;;;;1.33;0.82;;;21.70;45.10;;;;;;5000068;28;20045;-68
2022/02/26 03:05:44;;;;;;;1.42;0.85;;;21.70;45.20;;;;;;5015200;28;20057;-68
2022/02/26 03:08:09;;;;;;;1.25;0.80;;;21.70;45.20;;;;;;5012648;28;20022;-65
2022/02/26 03:10:35;;;;;;;2.08;0.90;;;21.70;45.20;;;;;;4999166;28;20032;-65
2022/02/26 03:13:02;;;;;;;2.00;1.00;;;21.70;45.70;;;;;;5000574;28;20038;-65
2022/02/26 03:15:28;;;;;;;1.65;0.98;;;21.70;45.20;;;;;;5000606;28;20030;-67
2022/02/26 03:17:53;;;;;;;2.08;0.90;;;21.70;45.20;;;;;;4999895;28;20092;-67
2022/02/26 03:20:20;;;;;;;1.27;0.88;;;21.70;45.20;;;;;;4999444;28;20395;-67
2022/02/26 03:22:46;;;;;;;1.52;0.95;;;21.70;45.20;;;;;;4997895;28;20037;-68
2022/02/26 03:25:12;;;;;;;1.73;0.90;;;21.70;45.30;;;;;;4998609;28;20354;-67
2022/02/26 03:27:38;;;;;;;1.98;0.90;;;21.60;45.30;;;;;;4999954;28;20145;-67
2022/02/26 03:30:05;;;;;;;1.98;1.02;;;21.60;45.30;;;;;;4999490;28;20152;-67
2022/02/26 03:32:31;;;;;;;1.55;1.00;;;21.60;45.30;;;;;;4998960;28;20076;-65
2022/02/26 03:34:56;;;;;;;1.42;0.90;;;21.60;45.30;;;;;;4999539;28;20546;-67
2022/02/26 03:37:22;;;;;;;2.08;0.80;;;21.60;45.30;;;;;;5000433;28;20401;-66
2022/02/26 03:39:48;;;;;;;1.55;0.80;;;21.60;45.30;;;;;;4995906;28;20105;-66
2022/02/26 03:42:14;;;;;;;1.80;0.85;;;21.60;45.40;;;;;;4997432;28;20022;-67
2022/02/26 03:44:40;;;;;;;1.30;0.80;;;21.60;45.40;;;;;;4999809;28;20110;-65
2022/02/26 03:47:06;;;;;;;1.45;0.90;;;21.60;45.40;;;;;;5000667;28;20026;-66
2022/02/26 03:49:31;;;;;;;1.30;0.80;;;21.60;45.40;;;;;;4999241;28;20042;-64
2022/02/26 03:51:58;;;;;;;1.52;0.82;;;21.50;45.30;;;;;;4998802;28;20033;-65
2022/02/26 03:54:24;;;;;;;1.70;0.90;;;21.50;45.40;;;;;;4996636;28;20065;-65
2022/02/26 03:56:50;;;;;;;2.47;1.00;;;21.50;45.40;;;;;;4999416;28;20066;-68
2022/02/26 03:59:16;;;;;;;1.33;0.90;;;21.50;45.40;;;;;;4998227;28;20037;-68
2022/02/26 04:01:42;;;;;;;1.80;0.90;;;21.50;45.40;;;;;;5000176;28;20056;-65
2022/02/26 04:04:07;;;;;;;1.50;0.88;;;21.50;45.40;;;;;;4998989;28;20022;-68
2022/02/26 04:06:33;;;;;;;1.25;0.80;;;21.50;45.40;;;;;;4997380;28;20767;-67
2022/02/26 04:08:59;;;;;;;1.20;0.90;;;21.50;45.40;;;;;;4995730;28;20593;-64
2022/02/26 04:11:25;;;;;;;1.90;0.90;;;21.50;45.40;;;;;;4999940;28;20022;-65
2022/02/26 04:13:50;;;;;;;1.88;1.00;;;21.50;45.40;;;;;;4999525;28;20034;-63
2022/02/26 04:16:16;;;;;;;1.58;0.95;;;21.50;45.40;;;;;;4999342;28;20026;-65
2022/02/26 04:18:42;;;;;;;1.88;0.80;;;21.50;45.40;;;;;;4998941;28;20042;-65
2022/02/26 04:21:07;;;;;;;1.52;0.70;;;21.50;45.40;;;;;;5014608;28;20052;-65
2022/02/26 04:23:33;;;;;;;1.20;0.80;;;21.40;45.30;;;;;;4995974;28;20033;-65
2022/02/26 04:25:59;;;;;;;1.35;0.75;;;21.50;45.40;;;;;;4999418;28;20031;-66
2022/02/26 04:28:24;;;;;;;1.67;0.90;;;21.50;45.40;;;;;;4998819;28;20039;-67
2022/02/26 04:30:51;;;;;;;1.17;0.70;;;21.50;45.40;;;;;;4998582;28;20045;-67
2022/02/26 04:33:16;;;;;;;1.75;1.00;;;21.50;45.40;;;;;;4998474;28;20030;-67
2022/02/26 04:35:42;;;;;;;1.65;0.90;;;21.50;45.40;;;;;;4998704;28;20042;-63
2022/02/26 04:38:08;;;;;;;1.50;0.80;;;21.40;45.40;;;;;;4997286;28;20478;-65
2022/02/26 04:40:34;;;;;;;1.52;0.98;;;21.40;45.40;;;;;;4997563;28;20029;-67
2022/02/26 04:43:00;;;;;;;0.93;0.77;;;21.40;45.40;;;;;;4998889;28;20039;-65
2022/02/26 04:45:26;;;;;;;1.00;0.70;;;21.40;45.40;;;;;;5013881;28;20076;-63
2022/02/26 04:47:52;;;;;;;0.75;0.60;;;21.40;45.40;;;;;;4998433;28;20441;-67
2022/02/26 04:50:18;;;;;;;1.35;0.80;;;21.40;45.40;;;;;;4998434;28;20014;-67
2022/02/26 04:52:45;;;;;;;1.50;0.80;;;21.40;45.40;;;;;;5011615;28;20505;-65
2022/02/26 04:55:11;;;;;;;1.17;0.80;;;21.40;45.40;;;;;;4998218;28;20030;-67
2022/02/26 04:57:37;;;;;;;1.10;0.80;;;21.40;45.50;;;;;;4997201;28;20680;-67
2022/02/26 05:00:08;;;;;;;1.40;0.80;;;21.40;45.40;;;;;;4997655;28;20486;-67
2022/02/26 05:02:34;;;;;;;1.15;0.80;;;21.40;45.50;;;;;;4997722;28;20035;-67
2022/02/26 05:05:00;;;;;;;1.00;0.70;;;21.40;45.50;;;;;;4997619;28;20454;-68
2022/02/26 05:07:25;;;;;;;1.33;0.80;;;21.40;45.50;;;;;;4996750;28;20370;-65
2022/02/26 05:09:51;;;;;;;1.48;0.90;;;21.40;45.50;;;;;;4995496;28;20038;-65
2022/02/26 05:12:17;;;;;;;1.42;0.73;;;21.40;45.50;;;;;;4996506;28;20335;-66
2022/02/26 05:14:43;;;;;;;1.30;0.80;;;21.40;45.50;;;;;;4999577;28;20498;-66
2022/02/26 05:17:08;;;;;;;1.70;0.80;;;21.40;45.50;;;;;;4998857;28;20034;-65
2022/02/26 05:19:34;;;;;;;1.40;0.80;;;21.30;45.50;;;;;;4997742;28;20034;-66
2022/02/26 05:22:00;;;;;;;1.45;0.88;;;21.40;45.50;;;;;;4997189;28;20022;-65
2022/02/26 05:24:26;;;;;;;1.33;0.88;;;21.30;45.50;;;;;;4995199;28;20038;-65
2022/02/26 05:26:52;;;;;;;1.00;0.80;;;21.30;45.50;;;;;;5013027;28;20096;-68
2022/02/26 05:29:17;;;;;;;0.98;0.70;;;21.30;45.50;;;;;;4998025;28;20120;-64
2022/02/26 05:31:43;;;;;;;1.20;0.80;;;21.30;45.50;;;;;;4998712;28;20477;-67
2022/02/26 05:34:09;;;;;;;1.25;0.80;;;21.30;45.60;;;;;;4996370;28;20118;-65
2022/02/26 05:36:35;;;;;;;1.73;0.88;;;21.30;45.60;;;;;;4997356;28;20057;-67
2022/02/26 05:39:01;;;;;;;1.23;0.73;;;21.30;45.60;;;;;;4989505;28;20073;-67
2022/02/26 05:41:26;;;;;;;1.38;0.80;;;21.30;45.60;;;;;;4993862;28;20079;-65
2022/02/26 05:43:52;;;;;;;0.95;0.80;;;21.30;45.60;;;;;;4997608;28;20717;-66
2022/02/26 05:46:18;;;;;;;1.27;0.80;;;21.30;45.70;;;;;;4998694;28;20057;-65
2022/02/26 05:48:43;;;;;;;0.93;0.70;;;21.30;45.70;;;;;;4997157;28;20457;-64
2022/02/26 05:51:09;;;;;;;1.38;0.70;;;21.30;45.70;;;;;;4996885;28;20060;-64
2022/02/26 05:53:35;;;;;;;1.48;0.77;;;21.30;45.70;;;;;;4994865;28;20030;-67
2022/02/26 05:56:02;;;;;;;1.67;0.90;;;21.30;46.30;;;;;;4997997;28;20117;-68
2022/02/26 05:58:27;;;;;;;1.48;0.85;;;21.30;45.80;;;;;;4993986;28;20033;-67
2022/02/26 06:00:55;;;;;;;0.85;0.68;;;21.30;45.80;;;;;;4996921;28;20045;-65
2022/02/26 06:03:21;;;;;;;0.93;0.70;;;21.30;45.80;;;;;;4998125;28;20041;-67
2022/02/26 06:05:46;;;;;;;1.58;0.80;;;21.20;45.70;;;;;;5012850;28;20026;-64
2022/02/26 06:08:12;;;;;;;1.10;0.70;;;21.20;45.70;;;;;;5009188;28;20041;-64
2022/02/26 06:10:37;;;;;;;1.10;0.77;;;21.20;46.30;;;;;;4996571;28;20120;-64
2022/02/26 06:13:03;;;;;;;0.95;0.70;;;21.20;45.80;;;;;;4997448;28;20038;-65
2022/02/26 06:15:29;;;;;;;0.65;0.55;;;21.20;45.80;;;;;;4997234;28;20117;-65
2022/02/26 06:17:55;;;;;;;0.90;0.70;;;21.20;46.40;;;;;;4996495;28;20069;-67
2022/02/26 06:20:20;;;;;;;1.00;0.70;;;21.20;46.40;;;;;;4995675;28;20053;-64
2022/02/26 06:22:48;;;;;;;0.90;0.60;;;21.20;45.80;;;;;;4995307;28;20054;-66
2022/02/26 06:25:14;;;;;;;1.10;0.80;;;21.20;45.80;;;;;;4996895;28;20093;-67
2022/02/26 06:27:43;;;;;;;1.08;0.80;;;21.20;45.80;;;;;;4996872;28;20050;-64
2022/02/26 06:30:11;;;;;;;0.70;0.70;;;21.20;45.90;;;;;;4996521;28;20062;-67
2022/02/26 06:32:37;;;;;;;1.17;0.70;;;21.20;45.90;;;;;;5002163;28;20032;-66
2022/02/26 06:35:08;;;;;;;1.05;0.70;;;21.20;45.90;;;;;;4997045;28;20133;-65
2022/02/26 06:37:34;;;;;;;0.90;0.80;;;21.20;45.90;;;;;;4996020;28;20049;-67
2022/02/26 06:40:00;;;;;;;1.42;0.80;;;21.20;45.90;;;;;;4993677;28;20022;-66
2022/02/26 06:42:26;;;;;;;1.30;0.80;;;21.20;45.90;;;;;;4997880;28;20037;-66
2022/02/26 06:44:52;;;;;;;0.75;0.60;;;21.20;46.40;;;;;;4996800;28;20034;-67
2022/02/26 06:47:18;;;;;;;1.25;0.90;;;21.10;45.80;;;;;;4997832;28;20522;-66
2022/02/26 06:49:44;;;;;;;1.33;0.82;;;21.20;46.00;;;;;;4996998;28;20026;-67
2022/02/26 06:52:09;;;;;;;0.88;0.70;;;21.10;45.90;;;;;;4996340;28;20046;-64
2022/02/26 06:54:35;;;;;;;1.08;0.77;;;21.20;45.90;;;;;;4994370;28;20576;-65
2022/02/26 06:57:01;;;;;;;0.85;0.70;;;21.10;45.90;;;;;;4997440;28;20030;-66
2022/02/26 06:59:27;;;;;;;0.98;0.75;;;21.20;45.90;;;;;;4995703;28;20038;-67
2022/02/26 07:01:53;;;;;;;0.80;0.63;;;21.20;45.90;;;;;;4995070;28;20050;-68
2022/02/26 07:04:18;;;;;;;1.10;0.70;;;21.10;45.90;;;;;;4996065;28;20456;-68
2022/02/26 07:06:44;;;;;;;0.63;0.60;;;21.10;45.90;;;;;;4996173;28;20044;-64
2022/02/26 07:09:15;;;;;;;1.20;0.80;;;21.10;45.90;;;;;;4994821;28;20326;-65
2022/02/26 07:11:44;;;;;;;0.88;0.60;;;21.10;45.80;;;;;;4995618;28;20152;-67
2022/02/26 07:14:10;;;;;;;1.02;0.70;;;21.10;45.90;;;;;;4998199;28;20493;-64
2022/02/26 07:16:37;;;;;;;1.50;0.80;;;21.10;46.40;;;;;;4996503;28;20065;-64
2022/02/26 07:19:04;;;;;;;0.85;0.68;;;21.10;45.90;;;;;;4995852;28;20080;-64
2022/02/26 07:21:30;;;;;;;1.00;0.80;;;21.10;45.90;;;;;;5009801;28;20027;-68
2022/02/26 07:23:56;;;;;;;1.23;0.85;;;21.10;45.90;;;;;;4993374;28;20504;-67
2022/02/26 07:26:25;;;;;;;1.10;0.77;;;21.10;45.90;;;;;;4999705;28;20129;-66
2022/02/26 07:28:51;;;;;;;1.05;0.77;;;21.10;46.40;;;;;;4998941;28;20121;-64
2022/02/26 07:31:17;;;;;;;1.10;0.85;;;21.10;45.90;;;;;;5001258;28;20149;-67
2022/02/26 07:33:43;;;;;;;1.15;0.80;;;21.10;45.90;;;;;;4999241;28;20030;-68
2022/02/26 07:36:09;;;;;;;1.20;0.80;;;21.10;45.90;;;;;;4998616;28;20037;-67
2022/02/26 07:38:38;;;;;;;1.35;0.80;;;21.10;45.90;;;;;;5010993;28;20457;-67
2022/02/26 07:41:06;;;;;;;1.35;0.73;;;21.10;45.90;;;;;;4999407;28;20041;-67
2022/02/26 07:43:32;;;;;;;1.80;0.90;;;21.10;46.00;;;;;;5000366;28;20521;-63
2022/02/26 07:45:58;;;;;;;1.15;0.80;;;21.00;45.90;;;;;;4999700;28;20034;-64
2022/02/26 07:48:24;;;;;;;1.13;0.95;;;21.00;45.90;;;;;;4999120;28;20038;-65
2022/02/26 07:50:50;;;;;;;1.08;0.80;;;21.10;46.00;;;;;;4998496;28;20034;-65
2022/02/26 07:53:15;;;;;;;0.95;0.80;;;21.10;45.90;;;;;;4996382;28;20029;-67
2022/02/26 07:55:41;;;;;;;0.93;0.70;;;21.10;46.00;;;;;;5000015;28;20034;-65
2022/02/26 07:58:07;;;;;;;1.15;0.90;;;21.00;45.90;;;;;;4999217;28;20038;-64
2022/02/26 08:00:33;;;;;;;1.38;0.82;;;21.10;45.90;;;;;;4999240;28;20655;-64
2022/02/26 08:03:00;;;;;;;0.75;0.60;;;21.00;45.90;;;;;;5013892;28;20113;-65
2022/02/26 08:05:26;;;;;;;1.02;0.70;;;21.00;45.90;;;;;;4999374;28;20029;-67
2022/02/26 08:07:53;;;;;;;1.10;0.90;;;21.00;46.00;;;;;;4995952;28;20040;-68
2022/02/26 08:10:21;;;;;;;1.13;0.82;;;21.00;45.90;;;;;;4997337;28;20019;-64
2022/02/26 08:12:51;;;;;;;1.47;0.90;;;21.00;46.00;;;;;;5013093;28;20025;-67
2022/02/26 08:15:20;;;;;;;0.93;0.75;;;21.00;46.50;;;;;;4999974;28;20025;-64
2022/02/26 08:17:46;;;;;;;1.38;0.90;;;21.00;45.90;;;;;;4998693;28;20487;-67
2022/02/26 08:20:16;;;;;;;2.20;0.80;;;21.00;45.90;;;;;;4998302;28;20061;-67
2022/02/26 08:22:43;;;;;;;1.30;0.80;;;21.00;45.90;;;;;;4997599;28;20038;-68
2022/02/26 08:25:09;;;;;;;0.88;0.80;;;21.00;46.00;;;;;;5012688;28;20041;-65
2022/02/26 08:27:35;;;;;;;0.98;0.70;;;21.00;45.90;;;;;;4999913;28;20381;-65
2022/02/26 08:30:01;;;;;;;1.20;0.70;;;21.00;45.90;;;;;;4998319;28;20030;-68
2022/02/26 08:32:27;;;;;;;1.15;0.70;;;21.00;45.90;;;;;;5000004;28;20041;-67
2022/02/26 08:34:53;;;;;;;1.50;0.75;;;21.00;46.00;;;;;;4999070;28;20034;-67
2022/02/26 08:37:19;;;;;;;1.48;0.90;;;21.00;45.90;;;;;;4996322;28;20466;-66
2022/02/26 08:39:44;;;;;;;1.00;0.90;;;21.00;46.00;;;;;;5009756;28;20034;-67
2022/02/26 08:42:10;;;;;;;0.70;0.70;;;21.00;46.00;;;;;;4996913;28;20360;-68
2022/02/26 08:44:36;;;;;;;1.27;0.70;;;21.00;46.00;;;;;;4998612;28;20431;-65
2022/02/26 08:47:01;;;;;;;1.00;0.80;;;21.00;46.00;;;;;;4999721;28;20037;-67
2022/02/26 08:49:27;;;;;;;1.52;0.90;;;21.00;46.00;;;;;;4997446;28;20522;-68
2022/02/26 08:51:53;;;;;;;1.33;0.70;;;21.00;46.10;;;;;;4996353;28;20058;-65
2022/02/26 08:54:19;;;;;;;0.70;0.60;;;21.00;46.00;;;;;;4995190;28;20026;-67
2022/02/26 08:56:46;;;;;;;1.05;0.80;;;21.00;46.10;;;;;;4996203;28;20498;-66
2022/02/26 08:59:12;;;;;;;0.93;0.70;;;21.00;46.10;;;;;;4995125;28;20022;-72
2022/02/26 09:01:38;;;;;;;1.00;0.70;;;20.90;46.60;;;;;;4989562;28;20084;-68
2022/02/26 09:04:04;;;;;;;0.88;0.68;;;20.90;46.20;;;;;;4999525;28;20077;-68
2022/02/26 09:06:30;;;;;;;1.45;1.00;;;20.90;46.10;;;;;;4995841;28;20029;-66
2022/02/26 09:08:56;;;;;;;1.30;0.77;;;20.90;46.20;;;;;;4990897;28;20088;-67
2022/02/26 09:11:21;;;;;;;1.17;0.80;;;20.90;46.20;;;;;;4992141;28;20085;-67
2022/02/26 09:13:47;;;;;;;1.20;0.80;;;20.90;46.20;;;;;;4997195;28;20033;-66
2022/02/26 09:16:15;;;;;;;1.13;0.70;;;20.90;46.30;;;;;;4996326;28;20037;-68
2022/02/26 09:18:41;;;;;;;1.17;0.65;;;20.90;46.30;;;;;;4995660;28;20186;-65
2022/02/26 09:21:07;;;;;;;0.88;0.70;;;20.90;46.40;;;;;;4996383;28;20505;-66
2022/02/26 09:23:34;;;;;;;1.10;0.70;;;20.90;46.40;;;;;;4992440;28;20431;-66
2022/02/26 09:26:04;;;;;;;1.90;0.90;;;20.90;46.40;;;;;;4996973;28;20117;-68
2022/02/26 09:28:34;;;;;;;1.17;0.80;;;20.90;46.60;;;;;;4993217;28;20029;-67
2022/02/26 09:31:01;;;;;;;1.05;0.80;;;20.90;46.60;;;;;;4996048;28;20043;-66
2022/02/26 09:33:29;;;;;;;1.00;0.70;;;20.90;46.60;;;;;;4995392;28;20560;-68
2022/02/26 09:35:55;;;;;;;0.93;0.73;;;20.90;46.70;;;;;;4995850;28;20113;-66
2022/02/26 09:38:21;;;;;;;2.75;0.90;;;20.90;46.70;;;;;;4992718;28;20050;-67
2022/02/26 09:40:47;;;;;;;0.90;0.70;;;20.90;46.70;;;;;;4999096;28;20028;-64
2022/02/26 09:43:13;;;;;;;1.42;0.90;;;20.90;46.70;;;;;;4995147;28;20038;-66
2022/02/26 09:45:39;;;;;;;1.08;0.88;;;20.90;46.70;;;;;;4996060;28;20030;-68
2022/02/26 09:48:05;;;;;;;1.13;0.80;;;20.90;46.70;;;;;;4994938;28;20038;-67
2022/02/26 09:50:31;;;;;;;0.80;0.70;;;20.90;46.80;;;;;;4993825;28;20034;-69
2022/02/26 09:52:57;;;;;;;1.30;0.77;;;20.90;46.80;;;;;;4998966;28;20045;-66
2022/02/26 09:55:23;;;;;;;1.77;0.90;;;20.90;46.80;;;;;;4993536;28;20116;-68
2022/02/26 09:57:49;;;;;;;1.40;0.90;;;20.90;46.80;;;;;;4997111;28;20050;-68
2022/02/26 10:00:16;;;;;;;1.38;0.77;;;20.90;46.80;;;;;;4996055;28;20045;-67
2022/02/26 10:02:48;;;;;;;1.15;0.60;;;20.90;46.80;;;;;;4997828;28;20026;-68
2022/02/26 10:05:14;;;;;;;1.50;0.90;;;20.90;46.80;;;;;;4994394;28;20029;-68
2022/02/26 10:07:41;;;;;;;1.85;0.82;;;20.90;47.20;;;;;;4990444;28;20397;-68
2022/02/26 10:10:14;;;;;;;1.52;0.70;;;20.90;46.80;;;;;;4988507;28;20033;-69
2022/02/26 10:12:40;;;;;;;1.30;0.85;;;20.90;46.70;;;;;;4993075;28;20045;-67
2022/02/26 10:15:29;;;;;;;2.15;0.90;;;20.90;46.70;;;;;;4993916;28;20030;-69
2022/02/26 10:18:13;;;;;;;2.08;0.90;;;20.90;46.70;;;;;;4993458;28;20049;-67
2022/02/26 10:20:54;;;;;;;1.02;0.75;;;21.00;46.70;;;;;;4992167;28;20041;-68
2022/02/26 10:23:21;;;;;;;1.38;0.80;;;21.00;46.80;;;;;;4989006;28;20066;-68
2022/02/26 10:25:47;;;;;;;1.52;0.90;;;20.90;46.60;;;;;;4994242;28;20030;-68
2022/02/26 10:28:14;;;;;;;1.02;0.70;;;21.00;46.60;;;;;;4993962;28;20546;-68
2022/02/26 10:30:45;;;;;;;1.00;0.65;;;20.90;46.60;;;;;;4994361;28;20439;-67
2022/02/26 10:33:23;;;;;;;1.67;0.88;;;21.00;46.60;;;;;;4994313;28;20367;-67
2022/02/26 10:35:55;;;;;;;1.38;0.80;;;20.90;46.60;;;;;;4994602;28;20034;-67
2022/02/26 10:38:27;;;;;;;1.10;0.70;;;20.90;46.60;;;;;;4990624;28;20030;-67
2022/02/26 10:40:57;;;;;;;1.00;0.70;;;20.90;46.60;;;;;;4994966;28;20034;-67
2022/02/26 10:43:51;;;;;;;1.80;0.90;;;20.90;47.00;;;;;;4994538;28;20358;-68
2022/02/26 10:46:34;;;;;;;1.83;1.00;;;20.90;46.60;;;;;;4991894;28;20030;-68
2022/02/26 10:49:07;;;;;;;1.65;0.90;;;20.90;46.60;;;;;;4992933;28;20030;-67
2022/02/26 10:51:35;;;;;;;2.30;1.10;;;20.90;46.60;;;;;;4992519;28;20034;-68
2022/02/26 10:54:10;;;;;;;2.72;1.08;;;21.00;46.60;;;;;;4990733;28;20108;-68
2022/02/26 10:56:40;;;;;;;2.85;0.93;;;20.90;46.60;;;;;;4994546;28;20034;-67
2022/02/26 10:59:09;;;;;;;2.13;0.98;;;20.90;46.60;;;;;;4993097;28;20763;-67
2022/02/26 11:01:36;;;;;;;1.83;0.90;;;20.90;46.60;;;;;;4995186;28;20050;-67
2022/02/26 11:04:02;;;;;;;1.95;0.90;;;20.90;46.70;;;;;;4997375;28;20034;-68
2022/02/26 11:06:28;;;;;;;2.00;1.00;;;20.90;46.60;;;;;;5007503;28;20026;-68
2022/02/26 11:08:55;;;;;;;1.88;1.00;;;20.90;46.70;;;;;;4994983;28;20675;-69
2022/02/26 11:11:25;;;;;;;1.63;0.90;;;20.90;46.70;;;;;;4997529;28;20634;-64
2022/02/26 11:13:53;;;;;;;1.65;0.90;;;20.90;46.70;;;;;;4996713;28;20026;-68
2022/02/26 11:16:22;;;;;;;1.77;1.10;;;20.90;46.70;;;;;;4998983;28;20084;-68
2022/02/26 11:18:58;;;;;;;2.78;1.00;;;20.90;46.80;;;;;;4995380;28;20783;-65
2022/02/26 11:21:24;;;;;;;2.20;1.33;;;20.90;46.80;;;;;;4992844;28;20655;-70
2022/02/26 11:23:50;;;;;;;1.55;1.00;;;20.90;46.90;;;;;;4990846;28;20069;-68
2022/02/26 11:26:18;;;;;;;1.52;0.90;;;21.00;47.10;;;;;;4995560;28;20045;-69
2022/02/26 11:28:49;;;;;;;1.80;1.00;;;21.00;47.20;;;;;;4992509;28;20026;-67
2022/02/26 11:31:22;;;;;;;2.00;1.05;;;21.00;47.20;;;;;;4994814;28;20438;-68
2022/02/26 11:33:49;;;;;;;2.30;1.10;;;21.10;47.20;;;;;;4995149;28;20030;-70
2022/02/26 11:36:14;;;;;;;2.22;1.17;;;21.10;47.10;;;;;;4993699;28;20030;-66
2022/02/26 11:38:43;;;;;;;2.15;1.13;;;21.10;47.00;;;;;;4991305;28;20382;-65
2022/02/26 11:41:22;;;;;;;1.00;0.80;;;21.20;46.90;;;;;;4991180;28;20022;-68
2022/02/26 11:44:01;;;;;;;2.08;1.20;;;21.20;46.80;;;;;;4993275;28;20055;-67
2022/02/26 11:46:34;;;;;;;2.25;1.23;;;21.30;46.80;;;;;;4995220;28;20023;-67
2022/02/26 11:49:18;;;;;;;2.30;1.20;;;21.30;46.70;;;;;;4993633;28;20373;-67
2022/02/26 11:51:46;;;;;;;3.92;1.30;;;21.30;46.70;;;;;;4994268;28;20119;-68
2022/02/26 11:54:17;;;;;;;2.35;1.30;;;21.40;46.60;;;;;;4990341;28;20370;-67
2022/02/26 11:56:52;;;;;;;3.60;1.38;;;21.40;46.60;;;;;;5004672;28;20033;-66
2022/02/26 11:59:49;;;;;;;3.85;1.50;;;21.40;46.60;;;;;;5008348;28;20325;-69
2022/02/26 12:02:15;;;;;;;4.00;1.02;;;21.40;46.50;;;;;;4993024;28;20418;-68
2022/02/26 12:04:53;;;;;;;3.17;1.40;;;21.50;46.60;;;;;;4993853;28;20026;-68
2022/02/26 12:07:39;;;;;;;2.55;1.30;;;21.50;46.50;;;;;;4995833;28;20301;-68
2022/02/26 12:10:12;;;;;;;4.75;1.33;;;21.50;46.40;;;;;;4991747;28;20030;-68
2022/02/26 12:12:46;;;;;;;4.55;1.30;;;21.60;46.50;;;;;;4991888;28;20030;-66
2022/02/26 12:15:26;;;;;;;2.00;1.10;;;21.60;46.40;;;;;;4995244;28;20519;-66
2022/02/26 12:17:55;;;;;;;2.40;1.20;;;21.60;47.00;;;;;;4994699;28;20030;-69
2022/02/26 12:20:30;;;;;;;2.03;1.00;;;21.60;46.50;;;;;;4990401;28;20030;-69
2022/02/26 12:23:07;;;;;;;1.73;1.10;;;21.60;46.60;;;;;;4991191;28;20309;-65
2022/02/26 12:25:38;;;;;;;1.80;1.00;;;21.70;46.50;;;;;;4992878;28;20026;-68
2022/02/26 12:28:08;;;;;;;3.15;1.50;;;21.70;46.60;;;;;;4993054;28;20575;-68
2022/02/26 12:30:51;;;;;;;2.40;1.10;;;21.70;46.50;;;;;;4993778;28;20325;-68
2022/02/26 12:33:19;;;;;;;2.30;1.10;;;21.80;46.60;;;;;;4994720;28;20018;-69
2022/02/26 12:35:45;;;;;;;2.13;1.08;;;21.80;46.50;;;;;;4997586;28;20471;-67
2022/02/26 12:38:32;;;;;;;1.70;0.93;;;21.80;46.70;;;;;;5009474;28;20046;-69
2022/02/26 12:40:58;;;;;;;2.17;1.05;;;21.90;46.90;;;;;;4994132;28;20490;-66
2022/02/26 12:43:30;;;;;;;2.45;1.10;;;21.90;46.70;;;;;;4994477;28;20129;-68
2022/02/26 12:45:56;;;;;;;2.63;1.20;;;21.90;46.60;;;;;;4997283;28;20029;-66
2022/02/26 12:48:23;;;;;;;2.65;1.30;;;21.90;46.50;;;;;;4996698;28;20082;-68
2022/02/26 12:50:50;;;;;;;2.80;1.20;;;21.90;46.40;;;;;;4996419;28;20458;-66